sensor_id;sensor_type;location;lat;lon;timestamp;pressure;altitude;pressure_sealevel;temperature;humidity
79028;BME280;68427;48.476;19.102;2023-06-19T00:01:53;97543.19;;;11.59;79.37
79028;BME280;68427;48.476;19.102;2023-06-19T00:04:19;97544.41;;;11.56;79.82
79028;BME280;68427;48.476;19.102;2023-06-19T00:06:45;97538.94;;;11.51;80.03
79028;BME280;68427;48.476;19.102;2023-06-19T00:09:10;97540.75;;;11.44;80.38
79028;BME280;68427;48.476;19.102;2023-06-19T00:11:37;97535.47;;;11.37;80.61
79028;BME280;68427;48.476;19.102;2023-06-19T00:14:03;97539.31;;;11.35;81.04
79028;BME280;68427;48.476;19.102;2023-06-19T00:16:29;97543.13;;;11.32;81.83
79028;BME280;68427;48.476;19.102;2023-06-19T00:18:54;97537.91;;;11.32;80.85
79028;BME280;68427;48.476;19.102;2023-06-19T00:21:21;97538.28;;;11.29;80.53
79028;BME280;68427;48.476;19.102;2023-06-19T00:23:49;97545.94;;;11.31;80.31
79028;BME280;68427;48.476;19.102;2023-06-19T00:26:15;97537.66;;;11.20;80.42
79028;BME280;68427;48.476;19.102;2023-06-19T00:28:43;97535.84;;;11.21;80.41
79028;BME280;68427;48.476;19.102;2023-06-19T00:31:10;97541.28;;;11.19;80.99
79028;BME280;68427;48.476;19.102;2023-06-19T00:33:38;97542.28;;;11.18;81.83
79028;BME280;68427;48.476;19.102;2023-06-19T00:36:09;97529.97;;;11.12;82.08
79028;BME280;68427;48.476;19.102;2023-06-19T00:38:35;97535.00;;;11.07;81.08
79028;BME280;68427;48.476;19.102;2023-06-19T00:41:00;97538.41;;;11.08;80.46
79028;BME280;68427;48.476;19.102;2023-06-19T00:43:26;97544.06;;;11.05;80.41
79028;BME280;68427;48.476;19.102;2023-06-19T00:45:53;97537.00;;;10.98;80.87
79028;BME280;68427;48.476;19.102;2023-06-19T00:48:19;97531.31;;;10.95;80.73
79028;BME280;68427;48.476;19.102;2023-06-19T00:50:45;97528.47;;;10.90;81.04
79028;BME280;68427;48.476;19.102;2023-06-19T00:53:10;97529.69;;;10.87;80.70
79028;BME280;68427;48.476;19.102;2023-06-19T00:55:37;97528.44;;;10.83;82.15
79028;BME280;68427;48.476;19.102;2023-06-19T00:58:03;97522.81;;;10.79;82.24
79028;BME280;68427;48.476;19.102;2023-06-19T01:00:29;97527.03;;;10.80;82.22
79028;BME280;68427;48.476;19.102;2023-06-19T01:02:56;97527.25;;;10.79;82.42
79028;BME280;68427;48.476;19.102;2023-06-19T01:05:22;97525.44;;;10.79;81.92
79028;BME280;68427;48.476;19.102;2023-06-19T01:07:58;97522.00;;;10.79;82.27
79028;BME280;68427;48.476;19.102;2023-06-19T01:10:28;97524.81;;;10.77;81.29
79028;BME280;68427;48.476;19.102;2023-06-19T01:12:57;97528.03;;;10.79;81.43
79028;BME280;68427;48.476;19.102;2023-06-19T01:15:25;97525.81;;;10.76;81.42
79028;BME280;68427;48.476;19.102;2023-06-19T01:17:51;97529.41;;;10.69;80.81
79028;BME280;68427;48.476;19.102;2023-06-19T01:20:19;97528.13;;;10.58;80.96
79028;BME280;68427;48.476;19.102;2023-06-19T01:22:46;97520.88;;;10.53;81.06
79028;BME280;68427;48.476;19.102;2023-06-19T01:25:12;97527.69;;;10.48;81.93
79028;BME280;68427;48.476;19.102;2023-06-19T01:27:40;97525.03;;;10.41;81.89
79028;BME280;68427;48.476;19.102;2023-06-19T01:30:07;97524.59;;;10.37;82.07
79028;BME280;68427;48.476;19.102;2023-06-19T01:32:41;97519.56;;;10.36;82.17
79028;BME280;68427;48.476;19.102;2023-06-19T01:35:11;97517.31;;;10.33;81.47
79028;BME280;68427;48.476;19.102;2023-06-19T01:37:39;97526.38;;;10.30;81.69
79028;BME280;68427;48.476;19.102;2023-06-19T01:40:09;97519.88;;;10.26;82.73
79028;BME280;68427;48.476;19.102;2023-06-19T01:42:35;97512.38;;;10.23;82.23
79028;BME280;68427;48.476;19.102;2023-06-19T01:45:03;97513.16;;;10.17;82.88
79028;BME280;68427;48.476;19.102;2023-06-19T01:47:29;97516.59;;;10.17;83.08
79028;BME280;68427;48.476;19.102;2023-06-19T01:49:55;97515.16;;;10.15;82.51
79028;BME280;68427;48.476;19.102;2023-06-19T01:52:20;97518.78;;;10.14;82.98
79028;BME280;68427;48.476;19.102;2023-06-19T01:54:46;97519.97;;;10.11;82.74
79028;BME280;68427;48.476;19.102;2023-06-19T01:57:13;97519.34;;;10.09;83.22
79028;BME280;68427;48.476;19.102;2023-06-19T01:59:39;97520.97;;;10.10;83.14
79028;BME280;68427;48.476;19.102;2023-06-19T02:02:05;97528.00;;;10.10;83.77
79028;BME280;68427;48.476;19.102;2023-06-19T02:04:32;97528.22;;;10.08;83.01
79028;BME280;68427;48.476;19.102;2023-06-19T02:06:57;97529.22;;;10.07;82.97
79028;BME280;68427;48.476;19.102;2023-06-19T02:09:23;97521.91;;;10.03;83.03
79028;BME280;68427;48.476;19.102;2023-06-19T02:11:49;97527.53;;;10.00;82.97
79028;BME280;68427;48.476;19.102;2023-06-19T02:14:16;97525.50;;;9.95;82.65
79028;BME280;68427;48.476;19.102;2023-06-19T02:16:42;97518.44;;;9.95;82.14
79028;BME280;68427;48.476;19.102;2023-06-19T02:19:09;97523.25;;;9.92;81.86
79028;BME280;68427;48.476;19.102;2023-06-19T02:21:35;97530.34;;;9.98;81.79
79028;BME280;68427;48.476;19.102;2023-06-19T02:24:01;97532.78;;;10.00;82.16
79028;BME280;68427;48.476;19.102;2023-06-19T02:26:26;97530.09;;;9.93;82.17
79028;BME280;68427;48.476;19.102;2023-06-19T02:28:54;97525.63;;;9.87;82.71
79028;BME280;68427;48.476;19.102;2023-06-19T02:31:21;97530.44;;;9.83;81.81
79028;BME280;68427;48.476;19.102;2023-06-19T02:33:47;97527.59;;;9.78;83.07
79028;BME280;68427;48.476;19.102;2023-06-19T02:36:13;97528.16;;;9.73;82.18
79028;BME280;68427;48.476;19.102;2023-06-19T02:38:44;97530.13;;;9.71;82.45
79028;BME280;68427;48.476;19.102;2023-06-19T02:41:10;97530.94;;;9.72;83.00
79028;BME280;68427;48.476;19.102;2023-06-19T02:45:42;97533.75;;;9.70;83.27
79028;BME280;68427;48.476;19.102;2023-06-19T02:48:08;97539.34;;;9.67;83.35
79028;BME280;68427;48.476;19.102;2023-06-19T02:50:33;97541.53;;;9.64;83.72
79028;BME280;68427;48.476;19.102;2023-06-19T02:52:59;97532.25;;;9.61;83.72
79028;BME280;68427;48.476;19.102;2023-06-19T02:55:25;97535.25;;;9.58;83.13
79028;BME280;68427;48.476;19.102;2023-06-19T02:57:51;97538.06;;;9.57;83.05
79028;BME280;68427;48.476;19.102;2023-06-19T03:00:16;97542.84;;;9.53;83.18
79028;BME280;68427;48.476;19.102;2023-06-19T03:02:44;97543.47;;;9.55;83.78
79028;BME280;68427;48.476;19.102;2023-06-19T03:05:10;97536.44;;;9.56;83.77
79028;BME280;68427;48.476;19.102;2023-06-19T03:07:36;97527.41;;;9.58;83.40
79028;BME280;68427;48.476;19.102;2023-06-19T03:10:02;97539.34;;;9.67;83.00
79028;BME280;68427;48.476;19.102;2023-06-19T03:12:28;97531.75;;;9.72;82.33
79028;BME280;68427;48.476;19.102;2023-06-19T03:14:53;97529.34;;;9.71;82.42
79028;BME280;68427;48.476;19.102;2023-06-19T03:17:19;97533.56;;;9.72;82.09
79028;BME280;68427;48.476;19.102;2023-06-19T03:19:46;97538.00;;;9.71;83.26
79028;BME280;68427;48.476;19.102;2023-06-19T03:22:11;97537.19;;;9.71;83.21
79028;BME280;68427;48.476;19.102;2023-06-19T03:24:37;97539.59;;;9.72;83.44
79028;BME280;68427;48.476;19.102;2023-06-19T03:27:03;97540.22;;;9.74;83.58
79028;BME280;68427;48.476;19.102;2023-06-19T03:29:29;97538.66;;;9.80;83.38
79028;BME280;68427;48.476;19.102;2023-06-19T03:31:55;97539.09;;;9.84;83.38
79028;BME280;68427;48.476;19.102;2023-06-19T03:34:20;97537.28;;;9.84;84.55
79028;BME280;68427;48.476;19.102;2023-06-19T03:36:47;97533.47;;;9.87;83.99
79028;BME280;68427;48.476;19.102;2023-06-19T03:39:13;97535.94;;;9.95;83.66
79028;BME280;68427;48.476;19.102;2023-06-19T03:41:39;97543.25;;;10.00;82.85
79028;BME280;68427;48.476;19.102;2023-06-19T03:44:05;97540.88;;;10.05;83.09
79028;BME280;68427;48.476;19.102;2023-06-19T03:46:30;97542.91;;;10.09;82.08
79028;BME280;68427;48.476;19.102;2023-06-19T03:48:56;97532.03;;;10.06;82.48
79028;BME280;68427;48.476;19.102;2023-06-19T03:51:21;97538.63;;;10.02;82.71
79028;BME280;68427;48.476;19.102;2023-06-19T03:53:49;97539.25;;;10.04;84.13
79028;BME280;68427;48.476;19.102;2023-06-19T03:56:15;97548.31;;;10.08;84.45
79028;BME280;68427;48.476;19.102;2023-06-19T03:58:41;97549.00;;;10.16;84.16
79028;BME280;68427;48.476;19.102;2023-06-19T04:01:06;97550.84;;;10.23;84.20
79028;BME280;68427;48.476;19.102;2023-06-19T04:03:32;97545.25;;;10.26;83.85
79028;BME280;68427;48.476;19.102;2023-06-19T04:05:58;97541.09;;;10.31;84.12
79028;BME280;68427;48.476;19.102;2023-06-19T04:08:23;97541.50;;;10.35;83.24
79028;BME280;68427;48.476;19.102;2023-06-19T04:10:52;97547.59;;;10.42;83.16
79028;BME280;68427;48.476;19.102;2023-06-19T04:13:17;97548.25;;;10.51;83.59
79028;BME280;68427;48.476;19.102;2023-06-19T04:15:43;97550.72;;;10.59;83.69
79028;BME280;68427;48.476;19.102;2023-06-19T04:18:12;97551.13;;;10.63;83.83
79028;BME280;68427;48.476;19.102;2023-06-19T04:20:37;97550.16;;;10.64;83.56
79028;BME280;68427;48.476;19.102;2023-06-19T04:23:03;97553.16;;;10.67;84.24
79028;BME280;68427;48.476;19.102;2023-06-19T04:25:29;97551.22;;;10.76;83.67
79028;BME280;68427;48.476;19.102;2023-06-19T04:27:56;97553.44;;;10.86;82.72
79028;BME280;68427;48.476;19.102;2023-06-19T04:30:22;97545.66;;;10.99;83.23
79028;BME280;68427;48.476;19.102;2023-06-19T04:32:47;97551.75;;;11.06;83.68
79028;BME280;68427;48.476;19.102;2023-06-19T04:35:13;97554.38;;;11.13;83.10
79028;BME280;68427;48.476;19.102;2023-06-19T04:37:38;97551.97;;;11.18;83.86
79028;BME280;68427;48.476;19.102;2023-06-19T04:40:06;97560.47;;;11.27;83.46
79028;BME280;68427;48.476;19.102;2023-06-19T04:42:36;97559.88;;;11.31;83.82
79028;BME280;68427;48.476;19.102;2023-06-19T04:45:06;97556.88;;;11.34;83.61
79028;BME280;68427;48.476;19.102;2023-06-19T04:47:35;97556.50;;;11.44;83.79
79028;BME280;68427;48.476;19.102;2023-06-19T04:50:01;97575.06;;;11.56;83.73
79028;BME280;68427;48.476;19.102;2023-06-19T04:52:26;97574.69;;;11.65;84.39
79028;BME280;68427;48.476;19.102;2023-06-19T04:54:52;97575.69;;;11.78;84.18
79028;BME280;68427;48.476;19.102;2023-06-19T04:57:18;97571.31;;;11.92;84.17
79028;BME280;68427;48.476;19.102;2023-06-19T04:59:43;97578.19;;;12.13;83.15
79028;BME280;68427;48.476;19.102;2023-06-19T05:02:11;97578.38;;;12.38;82.73
79028;BME280;68427;48.476;19.102;2023-06-19T05:04:36;97573.69;;;12.60;82.13
79028;BME280;68427;48.476;19.102;2023-06-19T05:07:02;97570.16;;;12.86;80.32
79028;BME280;68427;48.476;19.102;2023-06-19T05:09:28;97563.16;;;13.18;79.33
79028;BME280;68427;48.476;19.102;2023-06-19T05:11:54;97571.31;;;13.55;77.86
79028;BME280;68427;48.476;19.102;2023-06-19T05:14:19;97570.41;;;13.99;76.62
79028;BME280;68427;48.476;19.102;2023-06-19T05:16:45;97569.16;;;14.27;74.41
79028;BME280;68427;48.476;19.102;2023-06-19T05:19:12;97564.19;;;14.62;74.41
79028;BME280;68427;48.476;19.102;2023-06-19T05:21:38;97576.22;;;14.95;73.66
79028;BME280;68427;48.476;19.102;2023-06-19T05:24:04;97579.75;;;15.19;73.07
79028;BME280;68427;48.476;19.102;2023-06-19T05:26:29;97575.13;;;15.63;70.95
79028;BME280;68427;48.476;19.102;2023-06-19T05:28:55;97578.34;;;15.95;70.36
79028;BME280;68427;48.476;19.102;2023-06-19T05:31:21;97574.00;;;16.25;70.43
79028;BME280;68427;48.476;19.102;2023-06-19T05:33:46;97569.31;;;16.50;69.42
79028;BME280;68427;48.476;19.102;2023-06-19T05:36:13;97573.88;;;16.90;66.34
79028;BME280;68427;48.476;19.102;2023-06-19T05:38:39;97579.41;;;17.29;65.83
79028;BME280;68427;48.476;19.102;2023-06-19T05:41:05;97582.72;;;17.65;63.26
79028;BME280;68427;48.476;19.102;2023-06-19T05:43:32;97576.41;;;17.66;63.93
79028;BME280;68427;48.476;19.102;2023-06-19T05:45:57;97574.59;;;18.00;62.37
79028;BME280;68427;48.476;19.102;2023-06-19T05:48:25;97572.75;;;18.51;62.11
79028;BME280;68427;48.476;19.102;2023-06-19T05:50:51;97569.69;;;18.98;58.91
79028;BME280;68427;48.476;19.102;2023-06-19T05:53:18;97574.88;;;19.37;58.38
79028;BME280;68427;48.476;19.102;2023-06-19T05:55:43;97573.78;;;19.82;56.32
79028;BME280;68427;48.476;19.102;2023-06-19T05:58:09;97566.97;;;20.29;54.79
79028;BME280;68427;48.476;19.102;2023-06-19T06:00:35;97566.47;;;20.75;55.26
79028;BME280;68427;48.476;19.102;2023-06-19T06:03:00;97577.63;;;21.29;52.14
79028;BME280;68427;48.476;19.102;2023-06-19T06:05:27;97572.66;;;21.79;51.49
79028;BME280;68427;48.476;19.102;2023-06-19T06:07:53;97578.59;;;22.27;48.70
79028;BME280;68427;48.476;19.102;2023-06-19T06:10:21;97576.66;;;22.58;48.07
79028;BME280;68427;48.476;19.102;2023-06-19T06:12:47;97570.78;;;22.61;46.66
79028;BME280;68427;48.476;19.102;2023-06-19T06:15:13;97585.78;;;22.32;48.71
79028;BME280;68427;48.476;19.102;2023-06-19T06:17:38;97579.38;;;22.12;49.91
79028;BME280;68427;48.476;19.102;2023-06-19T06:20:05;97584.41;;;21.73;51.85
79028;BME280;68427;48.476;19.102;2023-06-19T06:22:36;97585.03;;;21.17;54.25
79028;BME280;68427;48.476;19.102;2023-06-19T06:25:02;97583.22;;;20.70;54.14
79028;BME280;68427;48.476;19.102;2023-06-19T06:27:29;97584.63;;;20.83;53.24
79028;BME280;68427;48.476;19.102;2023-06-19T06:29:55;97580.53;;;21.28;52.62
79028;BME280;68427;48.476;19.102;2023-06-19T06:32:21;97585.19;;;21.58;50.32
79028;BME280;68427;48.476;19.102;2023-06-19T06:34:46;97586.06;;;22.25;48.74
79028;BME280;68427;48.476;19.102;2023-06-19T06:37:13;97583.22;;;23.07;46.84
79028;BME280;68427;48.476;19.102;2023-06-19T06:39:38;97589.81;;;23.80;45.43
79028;BME280;68427;48.476;19.102;2023-06-19T06:42:04;97589.13;;;24.32;42.76
79028;BME280;68427;48.476;19.102;2023-06-19T06:44:31;97579.41;;;24.42;43.49
79028;BME280;68427;48.476;19.102;2023-06-19T06:46:57;97580.16;;;25.25;41.86
79028;BME280;68427;48.476;19.102;2023-06-19T06:49:22;97580.53;;;25.37;41.74
79028;BME280;68427;48.476;19.102;2023-06-19T06:51:48;97580.84;;;25.92;40.56
79028;BME280;68427;48.476;19.102;2023-06-19T06:54:14;97573.47;;;26.17;38.22
79028;BME280;68427;48.476;19.102;2023-06-19T06:56:39;97575.53;;;26.39;38.87
79028;BME280;68427;48.476;19.102;2023-06-19T06:59:05;97577.28;;;27.31;36.25
79028;BME280;68427;48.476;19.102;2023-06-19T07:01:32;97579.13;;;27.95;36.50
79028;BME280;68427;48.476;19.102;2023-06-19T07:03:58;97579.03;;;28.31;35.12
79028;BME280;68427;48.476;19.102;2023-06-19T07:06:24;97584.97;;;28.42;35.29
79028;BME280;68427;48.476;19.102;2023-06-19T07:08:49;97578.41;;;28.97;33.95
79028;BME280;68427;48.476;19.102;2023-06-19T07:11:15;97579.34;;;29.84;33.36
79028;BME280;68427;48.476;19.102;2023-06-19T07:13:40;97576.47;;;29.89;31.91
79028;BME280;68427;48.476;19.102;2023-06-19T07:16:06;97571.34;;;30.40;31.33
79028;BME280;68427;48.476;19.102;2023-06-19T07:18:33;97577.03;;;30.56;31.25
79028;BME280;68427;48.476;19.102;2023-06-19T07:21:03;97568.19;;;30.85;30.09
79028;BME280;68427;48.476;19.102;2023-06-19T07:23:32;97571.63;;;31.24;30.59
79028;BME280;68427;48.476;19.102;2023-06-19T07:25:58;97562.53;;;32.25;29.43
79028;BME280;68427;48.476;19.102;2023-06-19T07:28:24;97571.00;;;32.57;28.29
79028;BME280;68427;48.476;19.102;2023-06-19T07:30:49;97570.25;;;32.47;28.54
79028;BME280;68427;48.476;19.102;2023-06-19T07:33:17;97559.88;;;33.35;27.12
79028;BME280;68427;48.476;19.102;2023-06-19T07:35:44;97563.59;;;34.88;25.62
79028;BME280;68427;48.476;19.102;2023-06-19T07:38:10;97561.03;;;35.11;25.10
79028;BME280;68427;48.476;19.102;2023-06-19T07:40:36;97559.16;;;35.31;24.45
79028;BME280;68427;48.476;19.102;2023-06-19T07:43:01;97567.59;;;34.14;25.45
79028;BME280;68427;48.476;19.102;2023-06-19T07:45:27;97551.63;;;33.44;26.09
79028;BME280;68427;48.476;19.102;2023-06-19T07:47:56;97552.47;;;32.71;26.37
79028;BME280;68427;48.476;19.102;2023-06-19T07:50:22;97547.94;;;32.17;28.51
79028;BME280;68427;48.476;19.102;2023-06-19T07:52:49;97553.59;;;32.12;27.20
79028;BME280;68427;48.476;19.102;2023-06-19T07:55:14;97548.47;;;31.98;28.10
79028;BME280;68427;48.476;19.102;2023-06-19T07:57:40;97542.41;;;32.96;25.84
79028;BME280;68427;48.476;19.102;2023-06-19T08:00:07;97548.38;;;33.39;25.97
79028;BME280;68427;48.476;19.102;2023-06-19T08:02:39;97548.69;;;33.37;27.12
79028;BME280;68427;48.476;19.102;2023-06-19T08:05:06;97546.13;;;34.25;24.51
79028;BME280;68427;48.476;19.102;2023-06-19T08:07:31;97553.47;;;35.20;23.15
79028;BME280;68427;48.476;19.102;2023-06-19T08:09:59;97553.84;;;35.02;21.93
79028;BME280;68427;48.476;19.102;2023-06-19T08:12:24;97549.44;;;34.18;23.15
79028;BME280;68427;48.476;19.102;2023-06-19T08:14:50;97546.59;;;35.26;21.11
79028;BME280;68427;48.476;19.102;2023-06-19T08:17:15;97548.78;;;35.56;21.05
79028;BME280;68427;48.476;19.102;2023-06-19T08:19:41;97551.63;;;35.43;20.63
79028;BME280;68427;48.476;19.102;2023-06-19T08:22:08;97551.19;;;35.06;21.88
79028;BME280;68427;48.476;19.102;2023-06-19T08:24:34;97550.66;;;35.16;21.90
79028;BME280;68427;48.476;19.102;2023-06-19T08:27:03;97556.25;;;35.59;20.75
79028;BME280;68427;48.476;19.102;2023-06-19T08:29:29;97553.78;;;35.69;20.78
79028;BME280;68427;48.476;19.102;2023-06-19T08:31:54;97558.06;;;35.70;21.36
79028;BME280;68427;48.476;19.102;2023-06-19T08:34:20;97550.19;;;36.50;21.41
79028;BME280;68427;48.476;19.102;2023-06-19T08:36:46;97553.50;;;37.39;20.22
79028;BME280;68427;48.476;19.102;2023-06-19T08:39:11;97551.22;;;38.46;18.82
79028;BME280;68427;48.476;19.102;2023-06-19T08:41:37;97552.97;;;38.65;17.33
79028;BME280;68427;48.476;19.102;2023-06-19T08:44:05;97546.09;;;39.56;17.91
79028;BME280;68427;48.476;19.102;2023-06-19T08:46:31;97537.13;;;38.03;18.38
79028;BME280;68427;48.476;19.102;2023-06-19T08:48:57;97541.25;;;37.00;19.37
79028;BME280;68427;48.476;19.102;2023-06-19T08:51:22;97532.72;;;36.78;19.63
79028;BME280;68427;48.476;19.102;2023-06-19T08:53:49;97534.59;;;37.88;19.89
79028;BME280;68427;48.476;19.102;2023-06-19T08:56:18;97538.63;;;38.42;19.82
79028;BME280;68427;48.476;19.102;2023-06-19T08:58:44;97534.03;;;38.98;19.33
79028;BME280;68427;48.476;19.102;2023-06-19T09:01:11;97537.66;;;39.16;17.56
79028;BME280;68427;48.476;19.102;2023-06-19T09:03:38;97533.09;;;38.79;18.75
79028;BME280;68427;48.476;19.102;2023-06-19T09:06:06;97536.91;;;40.39;18.78
79028;BME280;68427;48.476;19.102;2023-06-19T09:08:32;97531.41;;;40.93;17.24
79028;BME280;68427;48.476;19.102;2023-06-19T09:10:59;97525.88;;;41.11;16.83
79028;BME280;68427;48.476;19.102;2023-06-19T09:13:25;97517.16;;;41.37;16.75
79028;BME280;68427;48.476;19.102;2023-06-19T09:15:58;97519.09;;;41.40;16.14
79028;BME280;68427;48.476;19.102;2023-06-19T09:18:26;97510.19;;;41.11;15.62
79028;BME280;68427;48.476;19.102;2023-06-19T09:20:52;97504.69;;;41.04;15.85
79028;BME280;68427;48.476;19.102;2023-06-19T09:23:19;97502.13;;;39.38;17.47
79028;BME280;68427;48.476;19.102;2023-06-19T09:25:46;97502.75;;;40.08;17.12
79028;BME280;68427;48.476;19.102;2023-06-19T09:28:17;97510.66;;;39.18;18.08
79028;BME280;68427;48.476;19.102;2023-06-19T09:30:51;97500.69;;;39.72;16.77
79028;BME280;68427;48.476;19.102;2023-06-19T09:33:17;97511.41;;;40.35;17.29
79028;BME280;68427;48.476;19.102;2023-06-19T09:35:44;97497.56;;;41.24;16.82
79028;BME280;68427;48.476;19.102;2023-06-19T09:38:11;97505.78;;;41.39;16.19
79028;BME280;68427;48.476;19.102;2023-06-19T09:40:38;97504.97;;;42.16;16.22
79028;BME280;68427;48.476;19.102;2023-06-19T09:43:05;97500.25;;;42.16;16.04
79028;BME280;68427;48.476;19.102;2023-06-19T09:45:32;97499.44;;;41.45;15.66
79028;BME280;68427;48.476;19.102;2023-06-19T09:47:59;97500.31;;;41.24;16.95
79028;BME280;68427;48.476;19.102;2023-06-19T09:50:26;97500.38;;;40.99;17.63
79028;BME280;68427;48.476;19.102;2023-06-19T09:52:55;97492.03;;;41.35;16.98
79028;BME280;68427;48.476;19.102;2023-06-19T09:55:22;97490.13;;;42.02;16.56
79028;BME280;68427;48.476;19.102;2023-06-19T09:57:50;97492.13;;;41.98;15.73
79028;BME280;68427;48.476;19.102;2023-06-19T10:00:17;97496.53;;;42.86;15.55
79028;BME280;68427;48.476;19.102;2023-06-19T10:02:48;97491.19;;;41.45;16.20
79028;BME280;68427;48.476;19.102;2023-06-19T10:05:14;97488.94;;;41.22;17.80
79028;BME280;68427;48.476;19.102;2023-06-19T10:07:42;97493.28;;;41.20;18.33
79028;BME280;68427;48.476;19.102;2023-06-19T10:10:11;97496.09;;;40.55;16.32
79028;BME280;68427;48.476;19.102;2023-06-19T10:12:42;97485.91;;;40.59;17.44
79028;BME280;68427;48.476;19.102;2023-06-19T10:15:16;97487.91;;;40.23;18.25
79028;BME280;68427;48.476;19.102;2023-06-19T10:17:47;97484.75;;;40.53;16.67
79028;BME280;68427;48.476;19.102;2023-06-19T10:20:22;97485.03;;;41.20;16.96
79028;BME280;68427;48.476;19.102;2023-06-19T10:22:52;97478.50;;;41.73;15.78
79028;BME280;68427;48.476;19.102;2023-06-19T10:25:23;97486.34;;;42.38;15.12
79028;BME280;68427;48.476;19.102;2023-06-19T10:27:49;97482.41;;;42.35;15.25
79028;BME280;68427;48.476;19.102;2023-06-19T10:30:20;97489.09;;;41.75;15.80
79028;BME280;68427;48.476;19.102;2023-06-19T10:32:46;97490.59;;;42.46;16.03
79028;BME280;68427;48.476;19.102;2023-06-19T10:35:13;97489.91;;;42.31;15.07
79028;BME280;68427;48.476;19.102;2023-06-19T10:37:39;97484.28;;;39.80;16.71
79028;BME280;68427;48.476;19.102;2023-06-19T10:40:06;97482.59;;;39.46;16.68
79028;BME280;68427;48.476;19.102;2023-06-19T10:42:37;97471.63;;;38.77;17.32
79028;BME280;68427;48.476;19.102;2023-06-19T10:45:04;97467.25;;;38.65;18.91
79028;BME280;68427;48.476;19.102;2023-06-19T10:47:43;97477.50;;;39.45;17.51
79028;BME280;68427;48.476;19.102;2023-06-19T10:50:11;97462.56;;;38.62;18.49
79028;BME280;68427;48.476;19.102;2023-06-19T10:52:40;97462.00;;;38.94;15.58
79028;BME280;68427;48.476;19.102;2023-06-19T10:55:06;97465.28;;;39.31;17.65
79028;BME280;68427;48.476;19.102;2023-06-19T10:57:32;97464.59;;;39.45;16.51
79028;BME280;68427;48.476;19.102;2023-06-19T10:59:59;97456.03;;;39.75;15.48
79028;BME280;68427;48.476;19.102;2023-06-19T11:02:25;97459.34;;;39.15;16.26
79028;BME280;68427;48.476;19.102;2023-06-19T11:04:52;97465.66;;;39.30;17.59
79028;BME280;68427;48.476;19.102;2023-06-19T11:07:18;97469.03;;;38.95;15.70
79028;BME280;68427;48.476;19.102;2023-06-19T11:09:43;97469.44;;;38.97;17.11
79028;BME280;68427;48.476;19.102;2023-06-19T11:12:09;97472.84;;;38.79;17.09
79028;BME280;68427;48.476;19.102;2023-06-19T11:14:35;97474.81;;;39.56;15.60
79028;BME280;68427;48.476;19.102;2023-06-19T11:17:06;97463.91;;;39.84;15.35
79028;BME280;68427;48.476;19.102;2023-06-19T11:19:32;97467.84;;;40.05;14.50
79028;BME280;68427;48.476;19.102;2023-06-19T11:22:04;97464.31;;;39.86;14.52
79028;BME280;68427;48.476;19.102;2023-06-19T11:24:29;97467.44;;;39.85;15.14
79028;BME280;68427;48.476;19.102;2023-06-19T11:26:56;97461.56;;;39.79;15.47
79028;BME280;68427;48.476;19.102;2023-06-19T11:29:25;97456.75;;;39.44;15.07
79028;BME280;68427;48.476;19.102;2023-06-19T11:32:03;97459.63;;;38.92;16.56
79028;BME280;68427;48.476;19.102;2023-06-19T11:34:33;97454.09;;;38.88;17.41
79028;BME280;68427;48.476;19.102;2023-06-19T11:37:02;97451.78;;;38.35;16.44
79028;BME280;68427;48.476;19.102;2023-06-19T11:39:27;97443.84;;;38.19;17.12
79028;BME280;68427;48.476;19.102;2023-06-19T11:41:54;97450.13;;;38.23;16.41
79028;BME280;68427;48.476;19.102;2023-06-19T11:44:20;97445.50;;;37.19;16.98
79028;BME280;68427;48.476;19.102;2023-06-19T11:46:45;97441.91;;;37.45;18.14
79028;BME280;68427;48.476;19.102;2023-06-19T11:49:13;97443.38;;;37.35;17.27
79028;BME280;68427;48.476;19.102;2023-06-19T11:51:40;97432.06;;;37.71;16.30
79028;BME280;68427;48.476;19.102;2023-06-19T11:54:08;97434.25;;;37.24;16.93
79028;BME280;68427;48.476;19.102;2023-06-19T11:56:33;97438.00;;;37.46;16.50
79028;BME280;68427;48.476;19.102;2023-06-19T11:58:59;97433.09;;;36.95;16.33
79028;BME280;68427;48.476;19.102;2023-06-19T12:01:25;97427.25;;;36.66;16.56
79028;BME280;68427;48.476;19.102;2023-06-19T12:03:51;97430.47;;;36.49;17.20
79028;BME280;68427;48.476;19.102;2023-06-19T12:06:17;97427.28;;;36.43;17.74
79028;BME280;68427;48.476;19.102;2023-06-19T12:08:45;97423.97;;;36.30;19.27
79028;BME280;68427;48.476;19.102;2023-06-19T12:11:10;97428.09;;;36.21;18.32
79028;BME280;68427;48.476;19.102;2023-06-19T12:13:38;97420.94;;;35.89;19.99
79028;BME280;68427;48.476;19.102;2023-06-19T12:16:04;97439.28;;;35.31;20.14
79028;BME280;68427;48.476;19.102;2023-06-19T12:18:29;97428.97;;;35.20;19.31
79028;BME280;68427;48.476;19.102;2023-06-19T12:20:55;97419.09;;;35.32;19.00
79028;BME280;68427;48.476;19.102;2023-06-19T12:23:21;97428.09;;;35.36;21.51
79028;BME280;68427;48.476;19.102;2023-06-19T12:25:48;97413.50;;;34.70;21.09
79028;BME280;68427;48.476;19.102;2023-06-19T12:28:14;97419.56;;;34.79;21.19
79028;BME280;68427;48.476;19.102;2023-06-19T12:30:43;97416.56;;;34.68;20.80
79028;BME280;68427;48.476;19.102;2023-06-19T12:33:09;97418.16;;;34.53;21.90
79028;BME280;68427;48.476;19.102;2023-06-19T12:35:35;97418.09;;;34.85;22.15
79028;BME280;68427;48.476;19.102;2023-06-19T12:38:01;97416.53;;;34.84;22.37
79028;BME280;68427;48.476;19.102;2023-06-19T12:40:27;97411.22;;;34.72;21.34
79028;BME280;68427;48.476;19.102;2023-06-19T12:42:54;97408.88;;;34.38;23.54
79028;BME280;68427;48.476;19.102;2023-06-19T12:45:19;97407.31;;;34.06;22.50
79028;BME280;68427;48.476;19.102;2023-06-19T12:47:45;97411.44;;;33.84;23.23
79028;BME280;68427;48.476;19.102;2023-06-19T12:50:10;97405.94;;;33.96;22.22